Aviation Digital Data Service (ADDS)

Output produced by METARs form (1308 UTC 21 February 2018)
found at http://www.aviationweather.gov/adds/metars/
 
ENAT 211250Z 11003KT 9999 VCSH FEW018 SCT023 BKN033 M06/M08 Q1021 RMK WIND 700FT 05011KT
ENAN 211250Z 22007KT CAVOK M05/M11 Q1024
ENML 211250Z 26009KT 9999 -SHRASN FEW015 SCT025 BKN060 05/00 Q1024
ENNA 211250Z 35009KT 9999 VCSH FEW017 BKN034 M05/M07 Q1021 RMK WIND 1800FT 02009KT
ENDU 211250Z 00000KT CAVOK M14/M18 Q1024 NOSIG RMK WIND 1100FT VRB02KT WIND 2200FT 34005KT
ENBR 211250Z VRB03KT 9999 FEW007 SCT025 03/01 Q1026 NOSIG RMK WIND 1200FT 30003KT
ENBO 211250Z 08020KT CAVOK M06/M12 Q1023 NOSIG
ENBL 211250Z VRB01KT 9999 FEW003 SCT008 BKN012 01/M01 Q1025
ENBN 211250Z 04005KT 360V070 9999 VCSH FEW030 BKN032 M02/M10 Q1023
ENEV 211250Z VRB02KT CAVOK M06/M16 Q1024 RMK WIND 1400FT 16005KT
ENFL 211250Z 08005KT 9999 FEW005 SCT008 BKN018 02/01 Q1027
ENHD 211250Z 35006KT 9999 FEW013 05/02 Q1026
ENKR 211250Z 31010KT 9999 FEW015 FEW030TCU M06/M09 Q1017 RMK WIND 731FT 27007KT
TAF AMD ENKR 211300Z 2113/2121 31008KT 9999 SCT020TCU BKN040 
     TEMPO 2116/2121 0800 +SN VV008 
     TEMPO 2116/2121 SCT014CB
       
ENMS 211250Z 14004KT CAVOK M07/M14 Q1024 RMK WIND 412FT VRB02KT
ENCN 211250Z 29003KT 240V010 CAVOK 06/00 Q1025
ENKB 211250Z 28015KT 9999 VCSH FEW016TCU SCT038 BKN053 03/00 Q1023 RMK WIND 745FT 29021KT
ENNO 211250Z VRB01KT CAVOK 01/M06 Q1026
ENOL 211250Z 28013KT 9999 FEW015TCU SCT060 04/00 Q1021 TEMPO 1500 SHSNRA VV012
ENGM 211250Z VRB02KT 9999 SCT010 BKN014 M04/M07 Q1025 TEMPO BKN015
ENRO 211250Z VRB06KT 9999 -SHSN BKN023 M06/M08 Q1019
ENRY 211250Z 08004KT 9999 BKN010 M02/M04 Q1026 TEMPO BKN015
ENSO 211250Z VRB02KT 9999 SCT005 SCT012 05/02 Q1026
ENSG 211250Z VRB02KT 1000 FZFG VV004 M03/M03 Q1024 RMK WIND 3806FT 27012KT
ENZV 211250Z 36005KT 9999 FEW010 05/02 Q1026 NOSIG
ENTO 211250Z 02005KT 9999 BKN007 M03/M03 Q1026
ENTC 211250Z 23008KT CAVOK M06/M11 Q1024 NOSIG RMK WIND 2600FT 33008KT
ENVA 211250Z 12007KT 9999 FEW008 BKN015 M03/M04 Q1022 TEMPO BKN012 RMK WIND 670FT 11004KT
ENAL 211250Z 27008KT 9999 FEW020 SCT025 BKN038 06/00 Q1025